Terminal Aerodrome Forecast
Issued by NWS

Home | Current Version | Previous Version | Text Only | Print | Product List | Glossary On
Versions: 1 2 3 4 5 6 7 8 9 10 11 12
000
FTUS46 KEKA 162300
TAFUKI
TAF
KUKI 162329Z 1700/1724 33010KT P6SM SKC
     FM170300 VRB03KT P6SM SKC
     FM171800 34005KT P6SM SCT200
     FM172100 32010KT P6SM SCT080 BKN200=

USA.gov is the U.S. government's official web portal to all federal, state and local government web resources and services.